Time;durP1;ratioP1;P1;durP2;ratioP2;P2;SDS_P1;SDS_P2;PMS_P1;PMS_P2;Temp;Humidity;BMP_temperature;BMP_pressure;BME280_temperature;BME280_humidity;BME280_pressure;Samples;Min_cycle;Max_cycle;Signal;HPM_P1;HPM_P2
2022/08/19 00:01:10;;;;;;;;;;;;;;;;;;6040864;23;8471;-80
2022/08/19 00:03:35;;;;;;;;;;;;;;;;;;6041025;23;8404;-82
2022/08/19 00:06:01;;;;;;;;;;;;;;;;;;6040472;23;7497;-80
2022/08/19 00:08:26;;;;;;;;;;;;;;;;;;6040382;23;8410;-80
2022/08/19 00:10:52;;;;;;;;;;;;;;;;;;6040943;23;8734;-80
2022/08/19 00:13:18;;;;;;;;;;;;;;;;;;6040739;23;8932;-80
2022/08/19 00:15:44;;;;;;;;;;;;;;;;;;6040312;23;7035;-81
2022/08/19 00:18:10;;;;;;;;;;;;;;;;;;6040573;23;9345;-81
2022/08/19 00:20:38;;;;;;;;;;;;;;;;;;6040483;23;8545;-79
2022/08/19 00:23:03;;;;;;;;;;;;;;;;;;6040244;23;7152;-80
2022/08/19 00:25:29;;;;;;;;;;;;;;;;;;6040973;23;7125;-79
2022/08/19 00:27:54;;;;;;;;;;;;;;;;;;6040241;23;8426;-79
2022/08/19 00:30:20;;;;;;;;;;;;;;;;;;6040502;23;8437;-80
2022/08/19 00:32:45;;;;;;;;;;;;;;;;;;6040283;23;8420;-80
2022/08/19 00:35:11;;;;;;;;;;;;;;;;;;6040695;23;8350;-80
2022/08/19 00:37:37;;;;;;;;;;;;;;;;;;6040909;23;7132;-81
2022/08/19 00:40:04;;;;;;;;;;;;;;;;;;6040799;23;7229;-80
2022/08/19 00:42:30;;;;;;;;;;;;;;;;;;6040293;23;8388;-80
2022/08/19 00:44:55;;;;;;;;;;;;;;;;;;6040198;23;7144;-81
2022/08/19 00:47:21;;;;;;;;;;;;;;;;;;6040143;23;8561;-81
2022/08/19 00:49:52;;;;;;;;;;;;;;;;;;6040375;23;8422;-81
2022/08/19 00:52:39;;;;;;;;;;;;;;;;;;6040529;23;8497;-80
2022/08/19 00:55:10;;;;;;;;;;;;;;;;;;6040212;23;8884;-81
2022/08/19 00:57:38;;;;;;;;;;;;;;;;;;6040118;23;7045;-83
2022/08/19 01:00:07;;;;;;;;;;;;;;;;;;6040553;23;8428;-81
2022/08/19 01:02:32;;;;;;;;;;;;;;;;;;6040724;23;7161;-82
2022/08/19 01:05:00;;;;;;;;;;;;;;;;;;6040277;23;8493;-82
2022/08/19 01:07:26;;;;;;;;;;;;;;;;;;6040185;23;8486;-81
2022/08/19 01:09:52;;;;;;;;;;;;;;;;;;6040173;23;8740;-81
2022/08/19 01:12:18;;;;;;;;;;;;;;;;;;6040790;23;8347;-81
2022/08/19 01:14:45;;;;;;;;;;;;;;;;;;6042956;23;9329;-80
2022/08/19 01:17:11;;;;;;;;;;;;;;;;;;6042339;23;8685;-80
2022/08/19 01:19:40;;;;;;;;;;;;;;;;;;6042333;23;8829;-80
2022/08/19 01:22:12;;;;;;;;;;;;;;;;;;6042936;23;7026;-82
2022/08/19 01:24:37;;;;;;;;;;;;;;;;;;6042238;23;8767;-81
2022/08/19 01:27:04;;;;;;;;;;;;;;;;;;6042503;23;9240;-80
2022/08/19 01:29:29;;;;;;;;;;;;;;;;;;6042195;23;8582;-79
2022/08/19 01:31:55;;;;;;;;;;;;;;;;;;6042306;23;8643;-80
2022/08/19 01:34:22;;;;;;;;;;;;;;;;;;6041804;23;8336;-81
2022/08/19 01:36:49;;;;;;;;;;;;;;;;;;6042217;23;8722;-80
2022/08/19 01:39:19;;;;;;;;;;;;;;;;;;6041655;23;7033;-81
2022/08/19 01:41:46;;;;;;;;;;;;;;;;;;6041964;23;8763;-81
2022/08/19 01:44:12;;;;;;;;;;;;;;;;;;6042293;23;8405;-80
2022/08/19 01:46:37;;;;;;;;;;;;;;;;;;6042390;23;7208;-81
2022/08/19 01:49:04;;;;;;;;;;;;;;;;;;6041548;23;8579;-80
2022/08/19 01:51:30;;;;;;;;;;;;;;;;;;6042165;23;6809;-80
2022/08/19 01:53:56;;;;;;;;;;;;;;;;;;6041490;23;7126;-80
2022/08/19 01:56:23;;;;;;;;;;;;;;;;;;6041553;23;8382;-80
2022/08/19 01:59:01;;;;;;;;;;;;;;;;;;6041625;23;8401;-81
2022/08/19 02:01:31;;;;;;;;;;;;;;;;;;6041500;23;7212;-81
2022/08/19 02:03:58;;;;;;;;;;;;;;;;;;6041890;23;8445;-79
2022/08/19 02:06:24;;;;;;;;;;;;;;;;;;6041364;23;8687;-80
2022/08/19 02:08:49;;;;;;;;;;;;;;;;;;6041393;23;9195;-81
2022/08/19 02:11:26;;;;;;;;;;;;;;;;;;6041778;23;6994;-82
2022/08/19 02:13:52;;;;;;;;;;;;;;;;;;6041643;23;7153;-79
2022/08/19 02:16:18;;;;;;;;;;;;;;;;;;6041954;23;8407;-79
2022/08/19 02:18:44;;;;;;;;;;;;;;;;;;6041315;23;7080;-80
2022/08/19 02:21:10;;;;;;;;;;;;;;;;;;6041471;23;8638;-81
2022/08/19 02:23:36;;;;;;;;;;;;;;;;;;6041274;23;8797;-81
2022/08/19 02:26:02;;;;;;;;;;;;;;;;;;6041582;23;8402;-81
2022/08/19 02:28:27;;;;;;;;;;;;;;;;;;6041432;23;8364;-81
2022/08/19 02:30:53;;;;;;;;;;;;;;;;;;6041456;23;8386;-81
2022/08/19 02:33:18;;;;;;;;;;;;;;;;;;6041387;23;8476;-81
2022/08/19 02:35:46;;;;;;;;;;;;;;;;;;6041295;23;7161;-82
2022/08/19 02:38:27;;;;;;;;;;;;;;;;;;6041090;23;8315;-80
2022/08/19 02:41:00;;;;;;;;;;;;;;;;;;6040909;23;7013;-79
2022/08/19 02:43:28;;;;;;;;;;;;;;;;;;6041488;23;8958;-79
2022/08/19 02:45:53;;;;;;;;;;;;;;;;;;6040844;23;7094;-80
2022/08/19 02:48:21;;;;;;;;;;;;;;;;;;6041502;23;8616;-80
2022/08/19 02:50:48;;;;;;;;;;;;;;;;;;6041012;23;7106;-78
2022/08/19 02:53:14;;;;;;;;;;;;;;;;;;6040971;23;8880;-80
2022/08/19 02:55:47;;;;;;;;;;;;;;;;;;6041677;23;8774;-79
2022/08/19 02:58:13;;;;;;;;;;;;;;;;;;6042142;23;7165;-79
2022/08/19 03:00:46;;;;;;;;;;;;;;;;;;6041024;23;8492;-80
2022/08/19 03:03:13;;;;;;;;;;;;;;;;;;6041984;23;8397;-79
2022/08/19 03:05:39;;;;;;;;;;;;;;;;;;6041203;23;7242;-78
2022/08/19 03:08:05;;;;;;;;;;;;;;;;;;6041960;23;7496;-82
2022/08/19 03:10:32;;;;;;;;;;;;;;;;;;6040610;23;8592;-82
2022/08/19 03:12:57;;;;;;;;;;;;;;;;;;6040979;23;7158;-81
2022/08/19 03:15:23;;;;;;;;;;;;;;;;;;6041180;23;8352;-82
2022/08/19 03:17:49;;;;;;;;;;;;;;;;;;6040839;23;7472;-82
2022/08/19 03:20:14;;;;;;;;;;;;;;;;;;6040896;23;8344;-83
2022/08/19 03:22:40;;;;;;;;;;;;;;;;;;6040531;23;9447;-79
2022/08/19 03:25:05;;;;;;;;;;;;;;;;;;6042184;23;8582;-79
2022/08/19 03:27:31;;;;;;;;;;;;;;;;;;6040820;23;8393;-78
2022/08/19 03:29:56;;;;;;;;;;;;;;;;;;6041075;23;8379;-79
2022/08/19 03:32:22;;;;;;;;;;;;;;;;;;6040198;23;8263;-78
2022/08/19 03:34:48;;;;;;;;;;;;;;;;;;6040826;23;8727;-79
2022/08/19 03:37:13;;;;;;;;;;;;;;;;;;6040447;23;9450;-80
2022/08/19 03:39:40;;;;;;;;;;;;;;;;;;6040572;23;7146;-80
2022/08/19 03:42:06;;;;;;;;;;;;;;;;;;6040726;23;8492;-80
2022/08/19 03:44:37;;;;;;;;;;;;;;;;;;6040146;23;8843;-80
2022/08/19 03:47:03;;;;;;;;;;;;;;;;;;6040755;23;8381;-80
2022/08/19 03:49:31;;;;;;;;;;;;;;;;;;6040589;23;8756;-82
2022/08/19 03:52:00;;;;;;;;;;;;;;;;;;6040873;23;9335;-81
2022/08/19 03:54:26;;;;;;;;;;;;;;;;;;6040171;23;7049;-80
2022/08/19 03:56:53;;;;;;;;;;;;;;;;;;6040822;23;8418;-80
2022/08/19 03:59:27;;;;;;;;;;;;;;;;;;6041184;23;7029;-81
2022/08/19 04:01:54;;;;;;;;;;;;;;;;;;6040373;23;7012;-80
2022/08/19 04:04:19;;;;;;;;;;;;;;;;;;6040618;23;8718;-80
2022/08/19 04:06:46;;;;;;;;;;;;;;;;;;6040296;23;8421;-80
2022/08/19 04:09:12;;;;;;;;;;;;;;;;;;6036974;23;7118;-79
2022/08/19 04:11:44;;;;;;;;;;;;;;;;;;5988910;23;8458;-80
2022/08/19 04:14:11;;;;;;;;;;;;;;;;;;5988798;23;8433;-79
2022/08/19 04:16:36;;;;;;;;;;;;;;;;;;5988596;23;8618;-80
2022/08/19 04:19:04;;;;;;;;;;;;;;;;;;5988905;23;8375;-79
2022/08/19 04:21:30;;;;;;;;;;;;;;;;;;5989883;23;8403;-79
2022/08/19 04:23:57;;;;;;;;;;;;;;;;;;5988752;23;7101;-80
2022/08/19 04:26:25;;;;;;;;;;;;;;;;;;5987770;23;7138;-79
2022/08/19 04:28:51;;;;;;;;;;;;;;;;;;5987628;23;7162;-81
2022/08/19 04:31:19;;;;;;;;;;;;;;;;;;5979326;23;8411;-78
2022/08/19 04:33:45;;;;;;;;;;;;;;;;;;5984094;23;8417;-77
2022/08/19 04:36:20;;;;;;;;;;;;;;;;;;5986024;23;8447;-79
2022/08/19 04:38:46;;;;;;;;;;;;;;;;;;5986658;23;7210;-79
2022/08/19 04:43:55;;;;;;;;;;;;;;;;;;6011871;23;6790;-79
2022/08/19 04:46:21;;;;;;;;;;;;;;;;;;5987278;23;8420;-79
2022/08/19 04:48:48;;;;;;;;;;;;;;;;;;5988600;23;8629;-79
2022/08/19 04:51:13;;;;;;;;;;;;;;;;;;5988500;23;8412;-79
2022/08/19 04:53:40;;;;;;;;;;;;;;;;;;5989168;23;8389;-79
2022/08/19 04:56:10;;;;;;;;;;;;;;;;;;5990158;23;8471;-80
2022/08/19 04:58:37;;;;;;;;;;;;;;;;;;5990439;23;7028;-78
2022/08/19 05:01:04;;;;;;;;;;;;;;;;;;5990635;23;8555;-80
2022/08/19 05:03:33;;;;;;;;;;;;;;;;;;5990370;23;8404;-79
2022/08/19 05:06:06;;;;;;;;;;;;;;;;;;5990450;23;8686;-81
2022/08/19 05:08:31;;;;;;;;;;;;;;;;;;5990115;23;7286;-79
2022/08/19 05:10:57;;;;;;;;;;;;;;;;;;6033120;23;8434;-80
2022/08/19 05:13:23;;;;;;;;;;;;;;;;;;6042456;23;8338;-80
2022/08/19 05:15:56;;;;;;;;;;;;;;;;;;6041789;23;8465;-80
2022/08/19 05:23:55;;;;;;;;;;;;;;;;;;6042482;23;6797;-80
2022/08/19 05:26:21;;;;;;;;;;;;;;;;;;6040107;23;8508;-80
2022/08/19 05:28:47;;;;;;;;;;;;;;;;;;6034033;23;8300;-78
2022/08/19 05:31:12;;;;;;;;;;;;;;;;;;6037754;23;8699;-80
2022/08/19 05:33:39;;;;;;;;;;;;;;;;;;6039528;23;6995;-78
2022/08/19 05:36:07;;;;;;;;;;;;;;;;;;6038237;23;8778;-79
2022/08/19 05:38:35;;;;;;;;;;;;;;;;;;6037194;23;7062;-80
2022/08/19 05:41:11;;;;;;;;;;;;;;;;;;6038442;23;7013;-79
2022/08/19 05:43:37;;;;;;;;;;;;;;;;;;6038146;23;7025;-81
2022/08/19 05:46:05;;;;;;;;;;;;;;;;;;6037164;23;8361;-78
2022/08/19 05:48:32;;;;;;;;;;;;;;;;;;6038274;23;7401;-79
2022/08/19 05:50:59;;;;;;;;;;;;;;;;;;6038255;23;8566;-80
2022/08/19 05:53:25;;;;;;;;;;;;;;;;;;6038659;23;8460;-78
2022/08/19 05:55:50;;;;;;;;;;;;;;;;;;6037488;23;8443;-79
2022/08/19 05:58:17;;;;;;;;;;;;;;;;;;6038327;23;7073;-79
2022/08/19 06:00:43;;;;;;;;;;;;;;;;;;6037224;23;8307;-80
2022/08/19 06:03:09;;;;;;;;;;;;;;;;;;6037566;23;7381;-80
2022/08/19 06:05:35;;;;;;;;;;;;;;;;;;6038126;23;7136;-82
2022/08/19 06:08:00;;;;;;;;;;;;;;;;;;6039643;23;8375;-80
2022/08/19 06:10:27;;;;;;;;;;;;;;;;;;6039874;23;7074;-80
2022/08/19 06:12:53;;;;;;;;;;;;;;;;;;6038447;23;8391;-80
2022/08/19 06:15:22;;;;;;;;;;;;;;;;;;6039961;23;8283;-81
2022/08/19 06:17:48;;;;;;;;;;;;;;;;;;6040248;23;7714;-80
2022/08/19 06:20:17;;;;;;;;;;;;;;;;;;6040422;23;8693;-80
2022/08/19 06:22:51;;;;;;;;;;;;;;;;;;6039994;23;7198;-82
2022/08/19 06:25:16;;;;;;;;;;;;;;;;;;6038648;23;8484;-83
2022/08/19 06:27:43;;;;;;;;;;;;;;;;;;6037473;23;8792;-80
2022/08/19 06:30:09;;;;;;;;;;;;;;;;;;6038723;23;8377;-81
2022/08/19 06:32:35;;;;;;;;;;;;;;;;;;6037433;23;7030;-78
2022/08/19 06:35:01;;;;;;;;;;;;;;;;;;6037621;23;8764;-76
2022/08/19 06:37:26;;;;;;;;;;;;;;;;;;6038143;23;8384;-79
2022/08/19 06:39:51;;;;;;;;;;;;;;;;;;6038310;23;8391;-79
2022/08/19 06:42:18;;;;;;;;;;;;;;;;;;6037937;23;8646;-78
2022/08/19 06:44:45;;;;;;;;;;;;;;;;;;6037848;23;8805;-81
2022/08/19 06:47:17;;;;;;;;;;;;;;;;;;6037275;23;7370;-81
2022/08/19 06:49:42;;;;;;;;;;;;;;;;;;6036825;23;7050;-78
2022/08/19 06:52:08;;;;;;;;;;;;;;;;;;6037279;23;8687;-80
2022/08/19 06:54:34;;;;;;;;;;;;;;;;;;6037327;23;8838;-80
2022/08/19 06:57:03;;;;;;;;;;;;;;;;;;6037529;23;8505;-80
2022/08/19 06:59:32;;;;;;;;;;;;;;;;;;6037673;23;8771;-80
2022/08/19 07:01:58;;;;;;;;;;;;;;;;;;6037491;23;7138;-80
2022/08/19 07:04:26;;;;;;;;;;;;;;;;;;6037242;23;8448;-78
2022/08/19 07:07:00;;;;;;;;;;;;;;;;;;6037926;23;8495;-79
2022/08/19 07:09:26;;;;;;;;;;;;;;;;;;6037667;23;8755;-79
2022/08/19 07:11:53;;;;;;;;;;;;;;;;;;6037245;23;8382;-77
2022/08/19 07:14:20;;;;;;;;;;;;;;;;;;6037244;23;8750;-81
2022/08/19 07:16:47;;;;;;;;;;;;;;;;;;6036381;23;8371;-79
2022/08/19 07:19:14;;;;;;;;;;;;;;;;;;6037742;23;8426;-79
2022/08/19 07:21:41;;;;;;;;;;;;;;;;;;6037741;23;7161;-81
2022/08/19 07:24:07;;;;;;;;;;;;;;;;;;6037885;23;8570;-79
2022/08/19 07:26:41;;;;;;;;;;;;;;;;;;6037193;23;7036;-79
2022/08/19 07:29:07;;;;;;;;;;;;;;;;;;6037191;23;8601;-80
2022/08/19 07:31:36;;;;;;;;;;;;;;;;;;6037984;23;8488;-80
2022/08/19 07:34:03;;;;;;;;;;;;;;;;;;6037421;23;8460;-79
2022/08/19 07:36:32;;;;;;;;;;;;;;;;;;6036964;23;7180;-81
2022/08/19 07:38:59;;;;;;;;;;;;;;;;;;6038951;23;8611;-79
2022/08/19 07:41:27;;;;;;;;;;;;;;;;;;6036715;23;8466;-81
2022/08/19 07:43:53;;;;;;;;;;;;;;;;;;6037281;23;8690;-80
2022/08/19 07:46:20;;;;;;;;;;;;;;;;;;6036788;23;7347;-80
2022/08/19 07:48:47;;;;;;;;;;;;;;;;;;6036814;23;8427;-81
2022/08/19 07:51:14;;;;;;;;;;;;;;;;;;6037947;23;8723;-79
2022/08/19 07:53:39;;;;;;;;;;;;;;;;;;6037435;23;8520;-79
2022/08/19 07:56:05;;;;;;;;;;;;;;;;;;6036653;23;8594;-79
2022/08/19 07:58:35;;;;;;;;;;;;;;;;;;6037408;23;8600;-80
2022/08/19 08:01:03;;;;;;;;;;;;;;;;;;6037661;23;8699;-79
2022/08/19 08:09:10;;;;;;;;;;;;;;;;;;6037497;23;6829;-77
2022/08/19 08:11:41;;;;;;;;;;;;;;;;;;5984273;23;8470;-81
2022/08/19 08:14:08;;;;;;;;;;;;;;;;;;5986008;23;7703;-77
2022/08/19 08:16:36;;;;;;;;;;;;;;;;;;5984803;23;8475;-80
2022/08/19 08:19:03;;;;;;;;;;;;;;;;;;5985105;23;7083;-81
2022/08/19 08:21:28;;;;;;;;;;;;;;;;;;5985360;23;7013;-80
2022/08/19 08:23:55;;;;;;;;;;;;;;;;;;5985370;23;8463;-81
2022/08/19 08:26:20;;;;;;;;;;;;;;;;;;5983944;23;8376;-79
2022/08/19 08:28:47;;;;;;;;;;;;;;;;;;5985614;23;9412;-82
2022/08/19 08:31:14;;;;;;;;;;;;;;;;;;5985786;23;9153;-80
2022/08/19 08:33:41;;;;;;;;;;;;;;;;;;5985104;23;8542;-80
2022/08/19 08:36:08;;;;;;;;;;;;;;;;;;5984944;23;8434;-80
2022/08/19 08:38:34;;;;;;;;;;;;;;;;;;5985347;23;7205;-80
2022/08/19 08:41:08;;;;;;;;;;;;;;;;;;5985168;23;8503;-78
2022/08/19 08:43:35;;;;;;;;;;;;;;;;;;5985794;23;9195;-80
2022/08/19 08:46:04;;;;;;;;;;;;;;;;;;5984940;23;8648;-80
2022/08/19 08:48:42;;;;;;;;;;;;;;;;;;5984718;23;8377;-81
2022/08/19 08:51:12;;;;;;;;;;;;;;;;;;5985569;23;8656;-80
2022/08/19 08:53:39;;;;;;;;;;;;;;;;;;5984160;23;7175;-80
2022/08/19 08:56:06;;;;;;;;;;;;;;;;;;5983724;23;9306;-77
2022/08/19 08:58:42;;;;;;;;;;;;;;;;;;5985228;23;8471;-77
2022/08/19 09:01:10;;;;;;;;;;;;;;;;;;5984946;23;7239;-77
2022/08/19 09:03:37;;;;;;;;;;;;;;;;;;5984089;23;8468;-77
2022/08/19 09:06:06;;;;;;;;;;;;;;;;;;5984982;23;8654;-77
2022/08/19 09:08:35;;;;;;;;;;;;;;;;;;5984801;23;8755;-81
2022/08/19 09:11:04;;;;;;;;;;;;;;;;;;6028124;23;8495;-78
2022/08/19 09:13:49;;;;;;;;;;;;;;;;;;6037188;23;9424;-81
2022/08/19 09:16:20;;;;;;;;;;;;;;;;;;6035784;23;9153;-82
2022/08/19 09:18:57;;;;;;;;;;;;;;;;;;6036668;23;8500;-82
2022/08/19 09:21:25;;;;;;;;;;;;;;;;;;6036656;23;8876;-80
2022/08/19 09:23:51;;;;;;;;;;;;;;;;;;6039293;23;7309;-77
2022/08/19 09:26:19;;;;;;;;;;;;;;;;;;6048652;23;8520;-78
2022/08/19 09:28:46;;;;;;;;;;;;;;;;;;6039398;23;8596;-80
2022/08/19 09:31:29;;;;;;;;;;;;;;;;;;6036365;23;8797;-80
2022/08/19 09:33:58;;;;;;;;;;;;;;;;;;6038342;23;8814;-81
2022/08/19 09:36:25;;;;;;;;;;;;;;;;;;6038648;23;7124;-80
2022/08/19 09:38:52;;;;;;;;;;;;;;;;;;6036730;23;7105;-82
2022/08/19 09:41:19;;;;;;;;;;;;;;;;;;6038698;23;9707;-79
2022/08/19 09:43:46;;;;;;;;;;;;;;;;;;6039908;23;8667;-81
2022/08/19 09:46:12;;;;;;;;;;;;;;;;;;6038956;23;8487;-83
2022/08/19 09:48:40;;;;;;;;;;;;;;;;;;6043092;23;7067;-82
2022/08/19 09:51:07;;;;;;;;;;;;;;;;;;6041867;23;8585;-83
2022/08/19 09:53:37;;;;;;;;;;;;;;;;;;6041437;23;8519;-82
2022/08/19 09:56:04;;;;;;;;;;;;;;;;;;6040959;23;8506;-80
2022/08/19 09:58:30;;;;;;;;;;;;;;;;;;6040144;23;7078;-80
2022/08/19 10:00:56;;;;;;;;;;;;;;;;;;6039916;23;7448;-81
2022/08/19 10:03:23;;;;;;;;;;;;;;;;;;6041200;23;8871;-78
2022/08/19 10:05:49;;;;;;;;;;;;;;;;;;6039513;23;8886;-79
2022/08/19 10:08:35;;;;;;;;;;;;;;;;;;6039564;23;9241;-81
2022/08/19 10:11:01;;;;;;;;;;;;;;;;;;6039164;23;8498;-81
2022/08/19 10:13:28;;;;;;;;;;;;;;;;;;6041231;23;8599;-81
2022/08/19 10:15:56;;;;;;;;;;;;;;;;;;6038852;23;8511;-80
2022/08/19 10:18:23;;;;;;;;;;;;;;;;;;6039638;23;8954;-81
2022/08/19 10:20:50;;;;;;;;;;;;;;;;;;6039889;23;8515;-79
2022/08/19 10:23:17;;;;;;;;;;;;;;;;;;6040000;23;8502;-81
2022/08/19 10:25:42;;;;;;;;;;;;;;;;;;6039087;23;8796;-81
2022/08/19 10:28:08;;;;;;;;;;;;;;;;;;6040009;23;8420;-81
2022/08/19 10:30:38;;;;;;;;;;;;;;;;;;6039486;23;8527;-81
2022/08/19 10:33:04;;;;;;;;;;;;;;;;;;6039778;23;8500;-82
2022/08/19 10:35:30;;;;;;;;;;;;;;;;;;6039289;23;8471;-81
2022/08/19 10:37:59;;;;;;;;;;;;;;;;;;6039191;23;8490;-81
2022/08/19 10:40:25;;;;;;;;;;;;;;;;;;6039535;23;7313;-79
2022/08/19 10:42:50;;;;;;;;;;;;;;;;;;6039712;23;8481;-82
2022/08/19 10:45:16;;;;;;;;;;;;;;;;;;6039052;23;8428;-80
2022/08/19 10:47:42;;;;;;;;;;;;;;;;;;6038945;23;8601;-81
2022/08/19 10:52:51;;;;;;;;;;;;;;;;;;6039925;23;7011;-80
2022/08/19 10:58:03;;;;;;;;;;;;;;;;;;6041257;23;7069;-81
2022/08/19 11:00:31;;;;;;;;;;;;;;;;;;6038324;23;7129;-80
2022/08/19 11:02:56;;;;;;;;;;;;;;;;;;6039508;23;8820;-81
2022/08/19 11:05:22;;;;;;;;;;;;;;;;;;6038823;23;8470;-81
2022/08/19 11:07:51;;;;;;;;;;;;;;;;;;6039544;23;8482;-81
2022/08/19 11:10:18;;;;;;;;;;;;;;;;;;6039844;23;8895;-81
2022/08/19 11:12:46;;;;;;;;;;;;;;;;;;6039671;23;6903;-80
2022/08/19 11:15:11;;;;;;;;;;;;;;;;;;6038798;23;8521;-79
2022/08/19 11:17:41;;;;;;;;;;;;;;;;;;6039949;23;8477;-80
2022/08/19 11:20:07;;;;;;;;;;;;;;;;;;6040176;23;8561;-80
2022/08/19 11:22:32;;;;;;;;;;;;;;;;;;6039902;23;8464;-80
2022/08/19 11:24:58;;;;;;;;;;;;;;;;;;6040099;23;8553;-80
2022/08/19 11:27:23;;;;;;;;;;;;;;;;;;6040586;23;7053;-81
2022/08/19 11:29:49;;;;;;;;;;;;;;;;;;6039803;23;8589;-83
2022/08/19 11:32:15;;;;;;;;;;;;;;;;;;6040459;23;7190;-82
2022/08/19 11:34:41;;;;;;;;;;;;;;;;;;6040210;23;7116;-78
2022/08/19 11:37:08;;;;;;;;;;;;;;;;;;6037971;23;9029;-80
2022/08/19 11:39:36;;;;;;;;;;;;;;;;;;6039470;23;8848;-80
2022/08/19 11:42:54;;;;;;;;;;;;;;;;;;6039216;23;8955;-79
2022/08/19 11:44:49;;;;;;;;;;;;;;;;;;6039713;23;7279;-78
2022/08/19 11:47:15;;;;;;;;;;;;;;;;;;6039227;23;8592;-77
2022/08/19 11:49:41;;;;;;;;;;;;;;;;;;6040413;23;8529;-77
2022/08/19 11:52:07;;;;;;;;;;;;;;;;;;6051086;23;8661;-77
2022/08/19 11:54:33;;;;;;;;;;;;;;;;;;6036990;23;7944;-79
2022/08/19 11:56:59;;;;;;;;;;;;;;;;;;6037271;23;8821;-78
2022/08/19 11:59:26;;;;;;;;;;;;;;;;;;6039227;23;7243;-79
2022/08/19 12:01:51;;;;;;;;;;;;;;;;;;6041389;23;8492;-79
2022/08/19 12:04:17;;;;;;;;;;;;;;;;;;6042427;23;8535;-81
2022/08/19 12:06:42;;;;;;;;;;;;;;;;;;6039747;23;8415;-75
2022/08/19 12:09:09;;;;;;;;;;;;;;;;;;6037495;23;8509;-81
2022/08/19 12:11:36;;;;;;;;;;;;;;;;;;5989044;23;8810;-80
2022/08/19 12:14:02;;;;;;;;;;;;;;;;;;5988588;23;8527;-80
2022/08/19 12:16:30;;;;;;;;;;;;;;;;;;5988520;23;8677;-79
2022/08/19 12:18:57;;;;;;;;;;;;;;;;;;5986831;23;8819;-78
2022/08/19 12:21:26;;;;;;;;;;;;;;;;;;5986878;23;8599;-80
2022/08/19 12:23:52;;;;;;;;;;;;;;;;;;5977073;23;9262;-77
2022/08/19 12:26:18;;;;;;;;;;;;;;;;;;5982562;23;6904;-80
2022/08/19 12:28:44;;;;;;;;;;;;;;;;;;5987086;23;8657;-76
2022/08/19 12:31:13;;;;;;;;;;;;;;;;;;5986957;23;7225;-79
2022/08/19 12:33:40;;;;;;;;;;;;;;;;;;5986406;23;8815;-79
2022/08/19 12:36:07;;;;;;;;;;;;;;;;;;5985629;23;8529;-75
2022/08/19 12:38:34;;;;;;;;;;;;;;;;;;5986459;23;8427;-76
2022/08/19 12:41:00;;;;;;;;;;;;;;;;;;5986432;23;8569;-76
2022/08/19 12:43:27;;;;;;;;;;;;;;;;;;5986057;23;8698;-79
2022/08/19 12:45:52;;;;;;;;;;;;;;;;;;5983519;23;8628;-78
2022/08/19 12:48:18;;;;;;;;;;;;;;;;;;5986207;23;8498;-79
2022/08/19 12:50:47;;;;;;;;;;;;;;;;;;5987110;23;8503;-77
2022/08/19 12:53:13;;;;;;;;;;;;;;;;;;5987690;23;8488;-79
2022/08/19 12:55:39;;;;;;;;;;;;;;;;;;5986907;23;8582;-80
2022/08/19 12:58:05;;;;;;;;;;;;;;;;;;5987274;23;8436;-77
2022/08/19 13:00:32;;;;;;;;;;;;;;;;;;5980482;23;8641;-78
2022/08/19 13:02:58;;;;;;;;;;;;;;;;;;5986015;23;7296;-79
2022/08/19 13:05:26;;;;;;;;;;;;;;;;;;5987192;23;8479;-80
2022/08/19 13:07:56;;;;;;;;;;;;;;;;;;5985205;23;8650;-80
2022/08/19 13:10:24;;;;;;;;;;;;;;;;;;6015417;23;8544;-79
2022/08/19 13:12:51;;;;;;;;;;;;;;;;;;6040474;23;8505;-78
2022/08/19 13:15:20;;;;;;;;;;;;;;;;;;6037190;23;7121;-81
2022/08/19 13:17:48;;;;;;;;;;;;;;;;;;6038811;23;8958;-78
2022/08/19 13:20:15;;;;;;;;;;;;;;;;;;6039822;23;8614;-78
2022/08/19 13:22:40;;;;;;;;;;;;;;;;;;6040371;23;7005;-78
2022/08/19 13:25:06;;;;;;;;;;;;;;;;;;6039673;23;8785;-79
2022/08/19 13:27:32;;;;;;;;;;;;;;;;;;6040534;23;8695;-80
2022/08/19 13:35:26;;;;;;;;;;;;;;;;;;6040926;23;7007;-79
2022/08/19 13:37:52;;;;;;;;;;;;;;;;;;6041010;23;8605;-79
2022/08/19 13:40:19;;;;;;;;;;;;;;;;;;6040669;23;8878;-79
2022/08/19 13:42:47;;;;;;;;;;;;;;;;;;6040223;23;7307;-78
2022/08/19 13:45:15;;;;;;;;;;;;;;;;;;6040165;23;8536;-79
2022/08/19 13:47:44;;;;;;;;;;;;;;;;;;6037015;23;8549;-78
2022/08/19 13:50:10;;;;;;;;;;;;;;;;;;6039264;23;8639;-79
2022/08/19 13:52:36;;;;;;;;;;;;;;;;;;6041537;23;7095;-80
2022/08/19 13:55:03;;;;;;;;;;;;;;;;;;6040654;23;8546;-80
2022/08/19 13:57:28;;;;;;;;;;;;;;;;;;6039675;23;7271;-80
2022/08/19 13:59:54;;;;;;;;;;;;;;;;;;6040704;23;9009;-79
2022/08/19 14:02:20;;;;;;;;;;;;;;;;;;6041344;23;8503;-81
2022/08/19 14:04:45;;;;;;;;;;;;;;;;;;6040582;23;8481;-79
2022/08/19 14:07:10;;;;;;;;;;;;;;;;;;6039671;23;8825;-81
2022/08/19 14:09:36;;;;;;;;;;;;;;;;;;6041370;23;8550;-79
2022/08/19 14:12:01;;;;;;;;;;;;;;;;;;6041199;23;8954;-79
2022/08/19 14:14:27;;;;;;;;;;;;;;;;;;6040985;23;8438;-80
2022/08/19 14:16:52;;;;;;;;;;;;;;;;;;6040927;23;8511;-79
2022/08/19 14:19:19;;;;;;;;;;;;;;;;;;6041485;23;8489;-79
2022/08/19 14:21:44;;;;;;;;;;;;;;;;;;6041187;23;8688;-79
2022/08/19 14:24:10;;;;;;;;;;;;;;;;;;6041401;23;8913;-80
2022/08/19 14:26:35;;;;;;;;;;;;;;;;;;6041233;23;8499;-80
2022/08/19 14:29:01;;;;;;;;;;;;;;;;;;6041288;23;7284;-79
2022/08/19 14:31:26;;;;;;;;;;;;;;;;;;6041726;23;7516;-78
2022/08/19 14:33:52;;;;;;;;;;;;;;;;;;6041182;23;8605;-79
2022/08/19 14:36:18;;;;;;;;;;;;;;;;;;6040450;23;8552;-79
2022/08/19 14:38:43;;;;;;;;;;;;;;;;;;6041072;23;8847;-79
2022/08/19 14:41:19;;;;;;;;;;;;;;;;;;6041185;23;8654;-81
2022/08/19 14:43:50;;;;;;;;;;;;;;;;;;6041531;23;7308;-78
2022/08/19 14:46:17;;;;;;;;;;;;;;;;;;6040865;23;8483;-78
2022/08/19 14:48:42;;;;;;;;;;;;;;;;;;6030999;23;8781;-76
2022/08/19 14:51:08;;;;;;;;;;;;;;;;;;6040335;23;6985;-81
2022/08/19 14:53:34;;;;;;;;;;;;;;;;;;6038671;23;7233;-80
2022/08/19 14:56:01;;;;;;;;;;;;;;;;;;6040060;23;8434;-80
2022/08/19 14:58:26;;;;;;;;;;;;;;;;;;6040224;23;7105;-79
2022/08/19 15:00:52;;;;;;;;;;;;;;;;;;6040978;23;8529;-81
2022/08/19 15:03:17;;;;;;;;;;;;;;;;;;6040434;23;8469;-81
2022/08/19 15:05:43;;;;;;;;;;;;;;;;;;6039713;23;8683;-79
2022/08/19 15:08:08;;;;;;;;;;;;;;;;;;6039704;23;8382;-79
2022/08/19 15:10:34;;;;;;;;;;;;;;;;;;6042375;23;8470;-78
2022/08/19 15:12:59;;;;;;;;;;;;;;;;;;6042096;23;7160;-78
2022/08/19 15:15:24;;;;;;;;;;;;;;;;;;6040463;23;8512;-79
2022/08/19 15:17:50;;;;;;;;;;;;;;;;;;6040230;23;8470;-80
2022/08/19 15:20:19;;;;;;;;;;;;;;;;;;6039516;23;8493;-80
2022/08/19 15:22:44;;;;;;;;;;;;;;;;;;6040302;23;8570;-79
2022/08/19 15:25:11;;;;;;;;;;;;;;;;;;6039504;23;7065;-78
2022/08/19 15:27:39;;;;;;;;;;;;;;;;;;6040045;23;8806;-79
2022/08/19 15:30:06;;;;;;;;;;;;;;;;;;6039903;23;8485;-81
2022/08/19 15:32:31;;;;;;;;;;;;;;;;;;6040546;23;6918;-78
2022/08/19 15:34:57;;;;;;;;;;;;;;;;;;6039564;23;8527;-80
2022/08/19 15:37:23;;;;;;;;;;;;;;;;;;6040110;23;8604;-81
2022/08/19 15:39:49;;;;;;;;;;;;;;;;;;6040067;23;8973;-80
2022/08/19 15:42:14;;;;;;;;;;;;;;;;;;6040081;23;8486;-81
2022/08/19 15:44:40;;;;;;;;;;;;;;;;;;6040297;23;7652;-79
2022/08/19 15:47:05;;;;;;;;;;;;;;;;;;6039280;23;8664;-80
2022/08/19 15:49:31;;;;;;;;;;;;;;;;;;6039549;23;8632;-80
2022/08/19 15:51:58;;;;;;;;;;;;;;;;;;6040533;23;7088;-80
2022/08/19 15:54:24;;;;;;;;;;;;;;;;;;6039999;23;8863;-78
2022/08/19 16:07:52;;;;;;;;;;;;;;;;;;6041035;23;6985;-76
2022/08/19 16:10:18;;;;;;;;;;;;;;;;;;6039013;23;8488;-76
2022/08/19 16:12:43;;;;;;;;;;;;;;;;;;6039499;23;8565;-79
2022/08/19 16:15:10;;;;;;;;;;;;;;;;;;6040269;23;8481;-79
2022/08/19 16:17:35;;;;;;;;;;;;;;;;;;6040014;23;8508;-80
2022/08/19 16:20:03;;;;;;;;;;;;;;;;;;6039994;23;9153;-81
2022/08/19 16:22:30;;;;;;;;;;;;;;;;;;6039979;23;7241;-82
2022/08/19 16:24:56;;;;;;;;;;;;;;;;;;6039321;23;7234;-80
2022/08/19 16:27:21;;;;;;;;;;;;;;;;;;6039122;23;8535;-80
2022/08/19 16:29:46;;;;;;;;;;;;;;;;;;6039753;23;8343;-80
2022/08/19 16:32:12;;;;;;;;;;;;;;;;;;6040357;23;8476;-79
2022/08/19 16:34:40;;;;;;;;;;;;;;;;;;6040044;23;8534;-80
2022/08/19 16:37:06;;;;;;;;;;;;;;;;;;6039890;23;8531;-82
2022/08/19 16:39:31;;;;;;;;;;;;;;;;;;6040123;23;9001;-80
2022/08/19 16:41:56;;;;;;;;;;;;;;;;;;6038718;23;8886;-82
2022/08/19 16:44:22;;;;;;;;;;;;;;;;;;6041636;23;8458;-80
2022/08/19 16:46:48;;;;;;;;;;;;;;;;;;6041108;23;8436;-82
2022/08/19 16:49:14;;;;;;;;;;;;;;;;;;6041959;23;8764;-82
2022/08/19 16:51:41;;;;;;;;;;;;;;;;;;6041575;23;9063;-82
2022/08/19 16:54:07;;;;;;;;;;;;;;;;;;6041633;23;8465;-81
2022/08/19 16:56:34;;;;;;;;;;;;;;;;;;6040936;23;8586;-81
2022/08/19 16:59:00;;;;;;;;;;;;;;;;;;6041895;23;8501;-82
2022/08/19 17:01:26;;;;;;;;;;;;;;;;;;6041947;23;7249;-83
2022/08/19 17:03:53;;;;;;;;;;;;;;;;;;6041036;23;9690;-83
2022/08/19 17:06:27;;;;;;;;;;;;;;;;;;6041309;23;7478;-81
2022/08/19 17:08:54;;;;;;;;;;;;;;;;;;6041689;23;8503;-82
2022/08/19 17:11:21;;;;;;;;;;;;;;;;;;6041128;23;7243;-82
2022/08/19 17:13:49;;;;;;;;;;;;;;;;;;6041400;23;8682;-81
2022/08/19 17:16:23;;;;;;;;;;;;;;;;;;6040893;23;8491;-81
2022/08/19 17:18:51;;;;;;;;;;;;;;;;;;6041825;23;8556;-80
2022/08/19 17:21:17;;;;;;;;;;;;;;;;;;6065601;23;8873;-80
2022/08/19 17:23:43;;;;;;;;;;;;;;;;;;6041731;23;8559;-80
2022/08/19 17:26:08;;;;;;;;;;;;;;;;;;6041369;23;8685;-80
2022/08/19 17:28:34;;;;;;;;;;;;;;;;;;6041545;23;8919;-81
2022/08/19 17:30:59;;;;;;;;;;;;;;;;;;6041839;23;8397;-82
2022/08/19 17:33:25;;;;;;;;;;;;;;;;;;6041437;23;8588;-82
2022/08/19 17:35:50;;;;;;;;;;;;;;;;;;6041437;23;8473;-83
2022/08/19 17:38:17;;;;;;;;;;;;;;;;;;6041941;23;8487;-81